Gretchen H — WDC9138 — position and weather

sailwx.info

Track history (hours):
 
Tides and Currents Weather Stations Pressure Air Temp Water Temp Dewpoint Dewpoint Depression Visibility Wind Speed Wind Dir Waves Ship Positions

Gretchen H

Owner: BOYER TOWING INC, KETCHIKAN, AK. More information available from US FCC via Universal Licensing System and Coast Guard Vessel Documentation Center.

Last reported at 2017-Oct-20 03:00 UTC. Time now 2017-Oct-20 03:28 UTC.
Position N 54°26' W 130°39'.

Type: Tow > 200 m length. MMSI: 367098050.

Date/timePositionNaut miles runAvg speedWind from/ knotsBaromVisibWave heightAir tempDewpointWater temp
2017-Oct-20 03:00N 54°26' W 130°39'4 8.8
2017-Oct-20 02:30N 54°30' W 130°42'5 8.4
2017-Oct-20 01:57N 54°35' W 130°44'269 6.1
2017-Oct-18 05:40N 58°13' W 135°30'2 7.8
2017-Oct-18 05:23N 58°14' W 135°33'3 8.5
2017-Oct-18 05:00N 58°16' W 135°39'4 9.0
2017-Oct-18 04:30N 58°18' W 135°46'510.5
2017-Oct-18 04:00N 58°17' W 135°56'5 9.6
2017-Oct-18 03:30N 58°15' W 136°05'4 7.6
2017-Oct-18 03:00N 58°16' W 136°12'4 7.2
2017-Oct-18 02:29N 58°17' W 136°19'  
Track history (hours):
 
Tides and Currents Weather Stations Pressure Air Temp Water Temp Dewpoint Dewpoint Depression Visibility Wind Speed Wind Dir Waves Ship Positions

Gretchen H

Owner: BOYER TOWING INC, KETCHIKAN, AK. More information available from US FCC via Universal Licensing System and Coast Guard Vessel Documentation Center.

Last reported at 2017-Oct-20 03:00 UTC. Time now 2017-Oct-20 03:28 UTC.
Position N 54°26' W 130°39'.

Type: Tow > 200 m length. MMSI: 367098050.

Date/timePositionNaut miles runAvg speedWind from/ knotsBaromVisibWave heightAir tempDewpointWater temp
2017-Oct-20 03:00N 54°26' W 130°39'4 8.8
2017-Oct-20 02:30N 54°30' W 130°42'5 8.4
2017-Oct-20 01:57N 54°35' W 130°44'269 6.1
2017-Oct-18 05:40N 58°13' W 135°30'2 7.8
2017-Oct-18 05:23N 58°14' W 135°33'3 8.5
2017-Oct-18 05:00N 58°16' W 135°39'4 9.0
2017-Oct-18 04:30N 58°18' W 135°46'510.5
2017-Oct-18 04:00N 58°17' W 135°56'5 9.6
2017-Oct-18 03:30N 58°15' W 136°05'4 7.6
2017-Oct-18 03:00N 58°16' W 136°12'4 7.2
2017-Oct-18 02:29N 58°17' W 136°19'  

Dump ship's entire track history